createdAt,value
2022-07-27T04:17:56.195Z,1.92
2022-07-27T04:20:16.960Z,1.83
2022-07-27T04:22:44.123Z,1.70
2022-07-27T04:25:11.890Z,1.60
2022-07-27T04:27:38.947Z,1.50
2022-07-27T04:30:09.429Z,1.48
2022-07-27T04:32:36.933Z,2.13
2022-07-27T04:35:04.481Z,1.50
2022-07-27T04:37:32.693Z,1.50
2022-07-27T04:39:59.769Z,1.77
2022-07-27T04:42:27.152Z,1.25
2022-07-27T04:44:54.397Z,1.60
2022-07-27T04:47:21.423Z,1.75
2022-07-27T04:49:48.602Z,1.50
2022-07-27T04:52:16.638Z,1.40
2022-07-27T04:54:44.489Z,1.17
2022-07-27T04:57:11.870Z,1.52
2022-07-27T04:59:38.922Z,1.30
2022-07-27T05:02:06.001Z,1.10
2022-07-27T05:04:33.090Z,1.15
2022-07-27T05:07:00.251Z,1.75
2022-07-27T05:09:27.374Z,1.63
2022-07-27T05:11:54.602Z,1.40
2022-07-27T05:14:21.908Z,1.50
2022-07-27T05:16:49.968Z,1.65
2022-07-27T05:19:17.142Z,1.80
2022-07-27T05:21:44.344Z,1.45
2022-07-27T05:24:11.941Z,1.42
2022-07-27T05:26:39.342Z,1.20
2022-07-27T05:29:06.286Z,1.90
2022-07-27T05:31:33.486Z,1.50
2022-07-27T05:34:00.571Z,1.05
2022-07-27T05:36:27.575Z,1.58
2022-07-27T05:38:54.701Z,1.50
2022-07-27T05:41:26.439Z,1.30
2022-07-27T05:46:22.963Z,1.30
2022-07-27T05:48:50.316Z,1.63
2022-07-27T05:51:17.519Z,2.03
2022-07-27T05:53:44.762Z,1.60
2022-07-27T05:56:11.874Z,1.45
2022-07-27T05:58:38.920Z,2.45
2022-07-27T06:01:06.068Z,2.03
2022-07-27T06:03:33.293Z,1.77
2022-07-27T06:06:18.920Z,1.88
2022-07-27T06:08:46.028Z,2.08
2022-07-27T06:11:14.049Z,2.35
2022-07-27T06:13:41.945Z,2.03
2022-07-27T06:16:10.219Z,3.15
2022-07-27T06:18:37.816Z,2.78
2022-07-27T06:21:05.713Z,2.53
2022-07-27T06:23:32.807Z,3.10
2022-07-27T06:26:00.038Z,2.75
2022-07-27T06:28:27.389Z,3.15
2022-07-27T06:30:54.536Z,4.20
2022-07-27T06:33:28.903Z,16.70
2022-07-27T06:35:57.719Z,5.03
2022-07-27T06:38:26.464Z,4.85
2022-07-27T06:40:55.192Z,5.07
2022-07-27T06:43:26.589Z,4.53
2022-07-27T06:45:54.606Z,5.32
2022-07-27T06:48:22.580Z,4.45
2022-07-27T06:50:51.123Z,4.95
2022-07-27T06:53:21.117Z,4.05
2022-07-27T06:55:49.326Z,4.47
2022-07-27T06:58:16.912Z,4.60
2022-07-27T07:00:45.917Z,4.20
2022-07-27T07:03:13.147Z,3.70
2022-07-27T07:05:46.308Z,3.60
2022-07-27T07:08:14.837Z,3.45
2022-07-27T07:10:43.619Z,3.90
2022-07-27T07:13:11.300Z,3.60
2022-07-27T07:15:40.655Z,2.95
2022-07-27T07:18:08.709Z,3.67
2022-07-27T07:20:37.411Z,3.30
2022-07-27T07:23:05.207Z,3.30
2022-07-27T07:25:33.525Z,3.67
2022-07-27T07:28:00.907Z,3.45
2022-07-27T07:30:28.788Z,3.28
2022-07-27T07:32:56.921Z,3.78
2022-07-27T07:35:24.803Z,3.70
2022-07-27T07:37:51.891Z,3.60
2022-07-27T07:43:07.144Z,3.90
2022-07-27T07:45:47.167Z,3.92
2022-07-27T07:48:20.550Z,4.18
2022-07-27T07:50:52.295Z,3.90
2022-07-27T07:53:24.890Z,3.67
2022-07-27T07:55:53.646Z,3.60
2022-07-27T07:58:20.814Z,3.40
2022-07-27T08:00:48.235Z,2.60
2022-07-27T08:03:15.700Z,3.05
2022-07-27T08:05:43.252Z,2.88
2022-07-27T08:08:10.509Z,2.40
2022-07-27T08:10:37.591Z,2.83
2022-07-27T08:13:05.045Z,2.70
2022-07-27T08:15:35.880Z,2.58
2022-07-27T08:18:05.600Z,2.80
2022-07-27T08:20:33.659Z,2.78
2022-07-27T08:23:01.275Z,2.60
2022-07-27T08:25:28.396Z,3.13
2022-07-27T08:27:56.321Z,2.67
2022-07-27T08:30:24.304Z,3.03
2022-07-27T08:33:01.325Z,2.75
2022-07-27T08:35:29.389Z,2.95
2022-07-27T08:37:57.081Z,3.60
2022-07-27T08:40:43.594Z,2.80
2022-07-27T08:43:21.811Z,2.63
2022-07-27T08:45:58.993Z,2.60
2022-07-27T08:48:27.583Z,2.20
2022-07-27T08:50:55.739Z,1.90
2022-07-27T08:53:23.564Z,1.50
2022-07-27T08:55:50.846Z,1.52
2022-07-27T08:58:18.062Z,1.80
2022-07-27T09:00:48.404Z,1.27
2022-07-27T09:03:20.354Z,2.10
2022-07-27T09:05:55.845Z,5.35
2022-07-27T09:08:30.909Z,2.08
2022-07-27T09:10:59.853Z,3.25
2022-07-27T09:13:33.615Z,1.60
2022-07-27T09:16:18.709Z,1.50
2022-07-27T09:18:48.115Z,1.65
2022-07-27T09:21:23.837Z,1.27
2022-07-27T09:23:52.373Z,1.20
2022-07-27T09:26:33.197Z,1.52
2022-07-27T09:29:06.737Z,1.40
2022-07-27T09:31:45.505Z,1.02
2022-07-27T09:34:13.704Z,1.20
2022-07-27T09:36:52.713Z,1.40
2022-07-27T09:39:21.452Z,1.50
2022-07-27T09:41:50.645Z,1.75
2022-07-27T09:44:42.024Z,1.63
2022-07-27T09:47:28.937Z,1.77
2022-07-27T09:49:58.590Z,1.83
2022-07-27T09:52:29.167Z,1.20
2022-07-27T09:55:04.513Z,1.10
2022-07-27T09:57:31.566Z,1.48
2022-07-27T10:00:13.875Z,1.30
2022-07-27T10:02:43.669Z,1.33
2022-07-27T10:05:11.372Z,1.27
2022-07-27T10:07:40.058Z,1.20
2022-07-27T10:10:07.909Z,1.25
2022-07-27T10:12:35.274Z,1.50
2022-07-27T10:15:02.417Z,1.48
2022-07-27T10:17:29.912Z,1.70
2022-07-27T10:19:58.633Z,1.50
2022-07-27T10:23:00.168Z,1.40
2022-07-27T10:25:32.480Z,1.67
2022-07-27T10:28:10.989Z,1.20
2022-07-27T10:30:38.906Z,1.25
2022-07-27T10:33:37.992Z,1.70
2022-07-27T10:36:05.518Z,1.55
2022-07-27T10:38:47.147Z,1.40
2022-07-27T10:41:29.703Z,1.90
2022-07-27T10:44:17.390Z,1.50
2022-07-27T10:46:45.660Z,1.60
2022-07-27T10:49:19.866Z,1.75
2022-07-27T10:51:47.063Z,1.10
2022-07-27T10:54:22.468Z,1.40
2022-07-27T10:56:51.679Z,1.60
2022-07-27T10:59:58.191Z,1.67
2022-07-27T11:02:39.878Z,1.42
2022-07-27T11:05:07.551Z,1.58
2022-07-27T11:07:44.618Z,1.77
2022-07-27T11:10:13.509Z,1.70
2022-07-27T11:12:42.053Z,1.65
2022-07-27T11:15:09.479Z,1.90
2022-07-27T11:20:31.306Z,1.85
2022-07-27T11:23:50.043Z,2.20
2022-07-27T11:26:02.637Z,1.80
2022-07-27T11:28:34.294Z,1.80
2022-07-27T11:31:03.783Z,2.17
2022-07-27T11:33:31.141Z,1.92
2022-07-27T11:36:04.670Z,2.13
2022-07-27T11:38:55.037Z,1.40
2022-07-27T11:41:47.981Z,1.70
2022-07-27T11:44:16.179Z,1.85
2022-07-27T11:46:45.000Z,1.45
2022-07-27T11:49:14.486Z,1.77
2022-07-27T11:51:50.136Z,1.35
2022-07-27T11:54:24.610Z,1.92
2022-07-27T11:57:09.426Z,2.08
2022-07-27T11:59:41.610Z,1.80
2022-07-27T12:02:17.910Z,1.88
2022-07-27T12:04:48.258Z,2.05
2022-07-27T12:07:22.102Z,2.13
2022-07-27T12:09:55.107Z,2.10
2022-07-27T12:12:26.315Z,2.10
2022-07-27T12:14:58.139Z,1.98
2022-07-27T12:17:38.688Z,2.20
2022-07-27T12:20:09.984Z,2.10
2022-07-27T12:25:12.368Z,2.08
2022-07-27T12:28:07.101Z,2.30
2022-07-27T12:30:37.879Z,1.90
2022-07-27T12:33:06.988Z,1.85
2022-07-27T12:35:47.990Z,2.22
2022-07-27T12:38:14.879Z,2.13
2022-07-27T12:40:50.374Z,2.10
2022-07-27T12:43:19.463Z,1.92
2022-07-27T12:45:48.674Z,1.77
2022-07-27T12:48:16.857Z,1.83
2022-07-27T12:50:49.155Z,1.50
2022-07-27T12:53:17.214Z,1.80
2022-07-27T12:55:44.632Z,1.80
2022-07-27T12:58:14.282Z,1.63
2022-07-27T13:00:41.392Z,2.15
2022-07-27T13:03:08.566Z,1.25
2022-07-27T13:05:36.883Z,1.52
2022-07-27T13:08:04.897Z,1.40
2022-07-27T13:10:31.991Z,1.60
2022-07-27T13:12:59.168Z,1.58
2022-07-27T13:15:26.539Z,1.42
2022-07-27T13:17:53.413Z,1.63
2022-07-27T13:20:20.251Z,1.33
2022-07-27T13:22:47.634Z,1.60
2022-07-27T13:25:17.189Z,1.27
2022-07-27T13:27:45.840Z,1.73
2022-07-27T13:30:14.497Z,1.48
2022-07-27T13:32:41.846Z,1.20
2022-07-27T13:35:12.363Z,1.27
2022-07-27T13:37:40.567Z,1.20
2022-07-27T13:40:09.199Z,1.20
2022-07-27T13:42:36.161Z,1.10
2022-07-27T13:45:09.906Z,1.20
2022-07-27T13:47:38.667Z,1.05
2022-07-27T13:50:06.455Z,1.40
2022-07-27T13:52:33.579Z,1.10
2022-07-27T13:55:00.337Z,2.33
2022-07-27T13:57:27.566Z,1.25
2022-07-27T13:59:54.394Z,1.10
2022-07-27T14:02:25.900Z,1.10
2022-07-27T14:04:53.384Z,1.75
2022-07-27T14:07:24.877Z,1.38
2022-07-27T14:10:13.231Z,1.25
2022-07-27T14:12:40.239Z,1.45
2022-07-27T14:15:08.130Z,1.50
2022-07-27T14:17:35.202Z,1.17
2022-07-27T14:20:02.029Z,1.30
2022-07-27T14:22:28.794Z,1.00
2022-07-27T14:24:55.573Z,1.25
2022-07-27T14:27:22.306Z,1.20
2022-07-27T14:29:49.117Z,1.67
2022-07-27T14:32:15.949Z,1.40
2022-07-27T14:34:44.568Z,1.30
2022-07-27T14:37:11.551Z,1.20
2022-07-27T14:39:39.443Z,1.02
2022-07-27T14:42:06.683Z,1.35
2022-07-27T14:44:35.192Z,1.40
2022-07-27T14:47:02.188Z,1.63
2022-07-27T14:49:29.414Z,1.13
2022-07-27T14:51:56.893Z,1.30
2022-07-27T14:54:23.743Z,1.05
2022-07-27T14:56:50.521Z,1.15
2022-07-27T14:59:17.467Z,1.20
2022-07-27T15:01:44.405Z,1.20
2022-07-27T15:04:11.430Z,1.42
2022-07-27T15:06:39.364Z,1.10
2022-07-27T15:09:07.798Z,1.00
2022-07-27T15:11:34.872Z,1.00
2022-07-27T15:14:05.078Z,1.33
2022-07-27T15:16:32.347Z,1.20
2022-07-27T15:18:59.526Z,1.15
2022-07-27T15:21:27.040Z,1.08
2022-07-27T15:23:53.855Z,1.40
2022-07-27T15:26:20.634Z,1.05
2022-07-27T15:28:47.455Z,1.00
2022-07-27T15:31:14.370Z,1.10
2022-07-27T15:33:41.651Z,1.30
2022-07-27T15:36:08.534Z,1.13
2022-07-27T15:38:35.767Z,1.13
2022-07-27T15:41:02.599Z,1.27
2022-07-27T15:43:29.544Z,1.00
2022-07-27T15:45:56.431Z,1.02
2022-07-27T15:48:23.518Z,1.30
2022-07-27T15:50:51.889Z,1.10
2022-07-27T15:53:21.066Z,1.13
2022-07-27T15:55:49.131Z,1.10
2022-07-27T15:58:19.599Z,1.10
2022-07-27T16:00:48.727Z,1.10
2022-07-27T16:03:16.312Z,1.08
2022-07-27T16:05:44.329Z,0.88
2022-07-27T16:08:11.554Z,0.95
2022-07-27T16:10:40.692Z,1.10
2022-07-27T16:13:09.755Z,1.25
2022-07-27T16:15:56.043Z,1.17
2022-07-27T16:18:23.038Z,0.80
2022-07-27T16:20:50.666Z,1.08
2022-07-27T16:23:21.417Z,1.10
2022-07-27T16:26:04.429Z,0.85
2022-07-27T16:28:33.330Z,1.00
2022-07-27T16:31:00.432Z,0.90
2022-07-27T16:33:27.229Z,1.20
2022-07-27T16:35:54.177Z,0.93
2022-07-27T16:38:20.923Z,1.20
2022-07-27T16:40:47.687Z,1.05
2022-07-27T16:43:14.470Z,0.93
2022-07-27T16:45:41.211Z,1.10
2022-07-27T16:48:08.206Z,1.00
2022-07-27T16:50:35.088Z,1.10
2022-07-27T16:53:01.830Z,1.05
2022-07-27T16:55:30.072Z,0.93
2022-07-27T16:57:56.813Z,1.05
2022-07-27T17:00:23.733Z,1.30
2022-07-27T17:02:50.613Z,1.27
2022-07-27T17:05:17.382Z,1.30
2022-07-27T17:07:44.211Z,1.10
2022-07-27T17:10:11.196Z,1.15
2022-07-27T17:12:38.807Z,1.13
2022-07-27T17:15:07.242Z,1.20
2022-07-27T17:17:34.629Z,0.80
2022-07-27T17:20:01.530Z,0.90
2022-07-27T17:22:28.300Z,1.13
2022-07-27T17:24:55.075Z,1.08
2022-07-27T17:27:22.094Z,1.38
2022-07-27T17:29:49.315Z,1.10
2022-07-27T17:32:16.121Z,1.00
2022-07-27T17:34:46.116Z,0.75
2022-07-27T17:37:13.243Z,0.90
2022-07-27T17:39:40.092Z,1.00
2022-07-27T17:42:07.347Z,1.20
2022-07-27T17:44:34.182Z,1.23
2022-07-27T17:47:01.705Z,0.95
2022-07-27T17:49:28.758Z,1.13
2022-07-27T17:51:55.939Z,1.02
2022-07-27T17:54:24.296Z,1.05
2022-07-27T17:56:51.035Z,1.27
2022-07-27T17:59:37.034Z,1.02
2022-07-27T18:02:05.017Z,0.90
2022-07-27T18:04:37.075Z,0.82
2022-07-27T18:07:05.843Z,1.23
2022-07-27T18:09:33.591Z,1.20
2022-07-27T18:12:00.606Z,1.05
2022-07-27T18:14:27.572Z,1.13
2022-07-27T18:16:54.467Z,0.90
2022-07-27T18:19:21.312Z,0.85
2022-07-27T18:21:48.134Z,1.20
2022-07-27T18:24:14.989Z,0.85
2022-07-27T18:26:42.102Z,0.95
2022-07-27T18:29:10.178Z,0.85
2022-07-27T18:31:37.505Z,0.77
2022-07-27T18:34:06.859Z,0.82
2022-07-27T18:36:38.920Z,0.93
2022-07-27T18:39:05.893Z,1.00
2022-07-27T18:41:32.676Z,1.33
2022-07-27T18:43:59.500Z,1.00
2022-07-27T18:46:26.565Z,0.80
2022-07-27T18:48:53.812Z,0.90
2022-07-27T18:51:21.316Z,1.25
2022-07-27T18:53:49.087Z,0.80
2022-07-27T18:56:16.094Z,0.82
2022-07-27T18:58:42.994Z,1.58
2022-07-27T19:01:09.890Z,0.73
2022-07-27T19:03:37.424Z,0.70
2022-07-27T19:06:08.488Z,0.67
2022-07-27T19:08:37.496Z,0.82
2022-07-27T19:11:04.404Z,0.70
2022-07-27T19:13:31.167Z,0.90
2022-07-27T19:15:58.030Z,0.80
2022-07-27T19:18:25.262Z,0.80
2022-07-27T19:20:53.105Z,0.63
2022-07-27T19:23:19.943Z,0.50
2022-07-27T19:25:47.196Z,1.17
2022-07-27T19:28:16.682Z,0.90
2022-07-27T19:30:43.502Z,1.15
2022-07-27T19:33:10.571Z,0.90
2022-07-27T19:35:38.300Z,1.60
2022-07-27T19:38:05.051Z,1.85
2022-07-27T19:40:47.474Z,0.88
2022-07-27T19:43:17.746Z,0.90
2022-07-27T19:45:44.609Z,0.98
2022-07-27T19:48:12.027Z,0.90
2022-07-27T19:50:39.388Z,0.80
2022-07-27T19:53:06.208Z,1.25
2022-07-27T19:55:33.314Z,0.88
2022-07-27T19:58:00.545Z,0.77
2022-07-27T20:00:27.386Z,0.70
2022-07-27T20:02:54.255Z,0.90
2022-07-27T20:05:21.108Z,0.90
2022-07-27T20:07:47.924Z,0.70
2022-07-27T20:10:14.985Z,0.65
2022-07-27T20:12:41.738Z,0.75
2022-07-27T20:15:09.134Z,0.88
2022-07-27T20:17:37.790Z,0.50
2022-07-27T20:20:08.996Z,1.00
2022-07-27T20:22:36.159Z,0.80
2022-07-27T20:25:03.225Z,0.90
2022-07-27T20:27:30.062Z,0.80
2022-07-27T20:29:56.796Z,0.60
2022-07-27T20:32:23.628Z,0.75
2022-07-27T20:34:50.528Z,0.70
2022-07-27T20:37:17.845Z,0.70
2022-07-27T20:39:45.130Z,1.15
2022-07-27T20:42:11.925Z,0.70
2022-07-27T20:44:38.692Z,0.95
2022-07-27T20:47:06.461Z,0.68
2022-07-27T20:49:34.412Z,0.70
2022-07-27T20:52:01.876Z,0.70
2022-07-27T20:54:29.689Z,0.77
2022-07-27T20:56:57.062Z,0.80
2022-07-27T20:59:24.421Z,0.90
2022-07-27T21:01:51.700Z,0.93
2022-07-27T21:04:19.268Z,0.90
2022-07-27T21:06:46.597Z,0.70
2022-07-27T21:09:13.944Z,0.90
2022-07-27T21:11:41.309Z,0.80
2022-07-27T21:14:09.689Z,0.80
2022-07-27T21:16:37.251Z,1.00
2022-07-27T21:19:04.174Z,0.85
2022-07-27T21:21:30.946Z,1.00
2022-07-27T21:24:17.756Z,0.80
2022-07-27T21:26:48.719Z,0.80
2022-07-27T21:29:16.482Z,0.70
2022-07-27T21:31:48.142Z,0.73
2022-07-27T21:34:18.368Z,0.95
2022-07-27T21:36:46.421Z,0.90
2022-07-27T21:39:13.277Z,1.00
2022-07-27T21:41:40.298Z,0.90
2022-07-27T21:44:07.333Z,0.80
2022-07-27T21:46:34.173Z,0.70
2022-07-27T21:49:01.080Z,0.93
2022-07-27T21:51:27.872Z,1.40
2022-07-27T21:53:54.711Z,0.70
2022-07-27T21:56:21.474Z,0.80
2022-07-27T21:58:49.040Z,1.00
2022-07-27T22:01:17.013Z,0.80
2022-07-27T22:03:44.268Z,0.80
2022-07-27T22:06:11.770Z,0.90
2022-07-27T22:08:38.606Z,0.57
2022-07-27T22:11:05.592Z,0.90
2022-07-27T22:13:32.554Z,1.17
2022-07-27T22:15:59.428Z,0.98
2022-07-27T22:18:26.230Z,0.90
2022-07-27T22:20:53.115Z,0.82
2022-07-27T22:23:19.899Z,0.93
2022-07-27T22:25:46.712Z,0.75
2022-07-27T22:28:13.483Z,0.80
2022-07-27T22:30:40.446Z,0.90
2022-07-27T22:33:08.137Z,1.20
2022-07-27T22:35:35.018Z,0.65
2022-07-27T22:38:01.834Z,0.90
2022-07-27T22:40:28.791Z,0.93
2022-07-27T22:42:55.579Z,1.10
2022-07-27T22:45:23.214Z,1.30
2022-07-27T22:47:50.539Z,0.90
2022-07-27T22:50:20.413Z,0.93
2022-07-27T22:52:48.799Z,0.82
2022-07-27T22:55:15.687Z,1.05
2022-07-27T22:57:42.417Z,1.10
2022-07-27T23:00:10.190Z,0.90
2022-07-27T23:02:38.060Z,0.70
2022-07-27T23:05:05.491Z,1.00
2022-07-27T23:07:32.305Z,1.10
2022-07-27T23:09:59.088Z,0.73
2022-07-27T23:12:25.870Z,0.70
2022-07-27T23:14:52.650Z,0.70
2022-07-27T23:17:19.432Z,0.75
2022-07-27T23:19:46.480Z,0.77
2022-07-27T23:22:13.397Z,1.08
2022-07-27T23:24:44.284Z,0.90
2022-07-27T23:27:12.323Z,0.80
2022-07-27T23:29:39.124Z,0.63
2022-07-27T23:32:08.385Z,0.90
2022-07-27T23:34:35.908Z,0.90
2022-07-27T23:37:02.669Z,1.27
2022-07-27T23:39:29.866Z,0.90
2022-07-27T23:41:57.184Z,0.90
2022-07-27T23:44:24.538Z,0.82
2022-07-27T23:46:51.885Z,0.90
2022-07-27T23:49:19.469Z,0.90
2022-07-27T23:51:46.760Z,1.10
2022-07-27T23:54:14.603Z,0.98
2022-07-27T23:56:42.096Z,1.00
2022-07-27T23:59:09.342Z,0.65
